Hennessey, Oklahoma
Current Conditions -  °F | °C
As of 9:58 PM on Sunday 23 Nov 2014 (Local Time) from KEND Reporting Station
Clear Clear  
Wind Chill:   Ceiling: Unl
Heat Index:   Visibility: 10mi
Dew Point:   Wind: 12mph
Humidity: 79%   Direction: 320°NW
Pressure: 29.7"   Gusts: NA
Location:  36.11°N, 97.9°W
Report Text: KEND 240358Z AUTO 32010KT 10SM CLR 05/02 A2970 RMK AO2 SLP060 T00540021 $
Loading
Personal Weather Stations






























Interactive Weather Map New forecast layout! Learn more

10-Day Weather Forecast

Advertisements
Track Severe Weather on mobile